createdAt,value
2023-04-18T00:00:43.973Z,556.00
2023-04-18T00:01:43.996Z,556.00
2023-04-18T00:02:44.249Z,556.00
2023-04-18T00:03:44.270Z,557.00
2023-04-18T00:04:44.199Z,555.00
2023-04-18T00:05:44.255Z,555.00
2023-04-18T00:06:44.238Z,556.00
2023-04-18T00:07:44.284Z,556.00
2023-04-18T00:08:44.295Z,552.00
2023-04-18T00:09:44.514Z,551.00
2023-04-18T00:10:44.358Z,553.00
2023-04-18T00:11:44.431Z,554.00
2023-04-18T00:12:44.493Z,555.00
2023-04-18T00:13:44.573Z,554.00
2023-04-18T00:14:44.590Z,554.00
2023-04-18T00:15:44.647Z,551.00
2023-04-18T00:16:44.756Z,551.00
2023-04-18T00:17:44.794Z,550.00
2023-04-18T00:18:44.761Z,550.00
2023-04-18T00:19:44.788Z,550.00
2023-04-18T00:20:44.886Z,548.00
2023-04-18T00:21:45.226Z,550.00
2023-04-18T00:22:44.915Z,546.00
2023-04-18T00:23:44.953Z,545.00
2023-04-18T00:24:45.036Z,545.00
2023-04-18T00:25:45.063Z,543.00
2023-04-18T00:26:45.102Z,542.00
2023-04-18T00:27:45.173Z,543.00
2023-04-18T00:28:45.176Z,542.00
2023-04-18T00:29:45.248Z,544.00
2023-04-18T00:30:45.337Z,544.00
2023-04-18T00:31:45.319Z,547.00
2023-04-18T00:32:45.418Z,548.00
2023-04-18T00:33:45.430Z,550.00
2023-04-18T00:34:45.459Z,550.00
2023-04-18T00:35:45.507Z,548.00
2023-04-18T00:36:45.564Z,549.00
2023-04-18T00:37:45.614Z,552.00
2023-04-18T00:38:45.649Z,551.00
2023-04-18T00:39:45.695Z,551.00
2023-04-18T00:40:45.781Z,549.00
2023-04-18T00:41:45.806Z,549.00
2023-04-18T00:42:45.851Z,550.00
2023-04-18T00:43:45.934Z,550.00
2023-04-18T00:44:45.929Z,552.00
2023-04-18T00:45:46.010Z,548.00
2023-04-18T00:46:46.010Z,547.00
2023-04-18T00:47:46.337Z,546.00
2023-04-18T00:48:46.124Z,544.00
2023-04-18T00:49:46.168Z,543.00
2023-04-18T00:50:46.310Z,541.00
2023-04-18T00:51:46.273Z,542.00
2023-04-18T00:52:46.293Z,542.00
2023-04-18T00:53:46.373Z,542.00
2023-04-18T00:54:46.386Z,543.00
2023-04-18T00:55:46.462Z,543.00
2023-04-18T00:56:46.484Z,543.00
2023-04-18T00:57:46.533Z,543.00
2023-04-18T00:58:46.584Z,544.00
2023-04-18T00:59:46.658Z,546.00
2023-04-18T01:00:46.643Z,545.00
2023-04-18T01:01:46.877Z,546.00
2023-04-18T01:02:46.858Z,545.00
2023-04-18T01:03:46.908Z,544.00
2023-04-18T01:04:46.870Z,545.00
2023-04-18T01:05:46.916Z,548.00
2023-04-18T01:06:46.930Z,548.00
2023-04-18T01:07:47.003Z,550.00
2023-04-18T01:08:47.035Z,547.00
2023-04-18T01:09:47.081Z,547.00
2023-04-18T01:10:47.138Z,547.00
2023-04-18T01:11:47.178Z,547.00
2023-04-18T01:12:47.267Z,547.00
2023-04-18T01:13:47.278Z,546.00
2023-04-18T01:14:47.303Z,547.00
2023-04-18T01:15:47.415Z,545.00
2023-04-18T01:16:47.401Z,543.00
2023-04-18T01:17:47.495Z,543.00
2023-04-18T01:18:47.527Z,542.00
2023-04-18T01:19:47.518Z,542.00
2023-04-18T01:20:47.587Z,543.00
2023-04-18T01:21:47.672Z,544.00
2023-04-18T01:22:47.660Z,546.00
2023-04-18T01:23:47.714Z,545.00
2023-04-18T01:24:47.791Z,541.00
2023-04-18T01:25:47.785Z,539.00
2023-04-18T01:26:47.834Z,541.00
2023-04-18T01:27:47.871Z,539.00
2023-04-18T01:28:47.933Z,538.00
2023-04-18T01:29:47.965Z,536.00
2023-04-18T01:30:47.998Z,536.00
2023-04-18T01:31:48.133Z,535.00
2023-04-18T01:32:48.117Z,536.00
2023-04-18T01:33:48.136Z,533.00
2023-04-18T01:34:48.186Z,532.00
2023-04-18T01:35:48.243Z,533.00
2023-04-18T01:36:48.267Z,533.00
2023-04-18T01:37:48.281Z,531.00
2023-04-18T01:38:48.321Z,532.00
2023-04-18T01:39:48.392Z,532.00
2023-04-18T01:40:48.433Z,534.00
2023-04-18T01:41:48.490Z,534.00
2023-04-18T01:42:48.543Z,536.00
2023-04-18T01:43:48.576Z,534.00
2023-04-18T01:44:48.580Z,534.00
2023-04-18T01:45:48.657Z,531.00
2023-04-18T01:46:48.762Z,530.00
2023-04-18T01:47:48.821Z,529.00
2023-04-18T01:48:48.790Z,527.00
2023-04-18T01:49:48.828Z,529.00
2023-04-18T01:50:48.861Z,532.00
2023-04-18T01:51:48.911Z,531.00
2023-04-18T01:52:48.928Z,530.00
2023-04-18T01:53:48.977Z,529.00
2023-04-18T01:54:49.027Z,528.00
2023-04-18T01:55:49.098Z,530.00
2023-04-18T01:56:49.106Z,531.00
2023-04-18T01:57:49.164Z,530.00
2023-04-18T01:58:49.189Z,532.00
2023-04-18T01:59:49.220Z,535.00
2023-04-18T02:00:49.284Z,532.00
2023-04-18T02:01:49.320Z,530.00
2023-04-18T02:02:49.493Z,528.00
2023-04-18T02:03:49.474Z,528.00
2023-04-18T02:04:49.471Z,530.00
2023-04-18T02:05:49.471Z,532.00
2023-04-18T02:06:49.525Z,530.00
2023-04-18T02:07:49.583Z,528.00
2023-04-18T02:08:49.600Z,528.00
2023-04-18T02:09:49.638Z,527.00
2023-04-18T02:10:49.654Z,529.00
2023-04-18T02:11:49.722Z,532.00
2023-04-18T02:12:49.769Z,536.00
2023-04-18T02:13:49.782Z,536.00
2023-04-18T02:14:49.818Z,536.00
2023-04-18T02:15:49.854Z,534.00
2023-04-18T02:16:49.951Z,533.00
2023-04-18T02:17:50.002Z,531.00
2023-04-18T02:18:49.973Z,532.00
2023-04-18T02:19:49.958Z,531.00
2023-04-18T02:20:49.982Z,530.00
2023-04-18T02:21:50.037Z,526.00
2023-04-18T02:22:50.063Z,525.00
2023-04-18T02:23:50.047Z,524.00
2023-04-18T02:24:50.070Z,529.00
2023-04-18T02:25:50.085Z,529.00
2023-04-18T02:26:50.105Z,529.00
2023-04-18T02:27:50.099Z,531.00
2023-04-18T02:28:50.080Z,528.00
2023-04-18T02:29:50.104Z,528.00
2023-04-18T02:30:50.129Z,526.00
2023-04-18T02:31:50.178Z,527.00
2023-04-18T02:32:50.161Z,526.00
2023-04-18T02:33:50.142Z,526.00
2023-04-18T02:34:50.123Z,525.00
2023-04-18T02:35:50.130Z,527.00
2023-04-18T02:36:50.122Z,529.00
2023-04-18T02:37:50.148Z,529.00
2023-04-18T02:38:50.142Z,530.00
2023-04-18T02:39:50.154Z,529.00
2023-04-18T02:40:50.215Z,530.00
2023-04-18T02:41:50.202Z,531.00
2023-04-18T02:42:50.293Z,532.00
2023-04-18T02:43:50.301Z,534.00
2023-04-18T02:44:50.308Z,533.00
2023-04-18T02:45:50.365Z,530.00
2023-04-18T02:46:50.400Z,531.00
2023-04-18T02:47:55.163Z,530.00
2023-04-18T02:48:51.416Z,530.00
2023-04-18T02:49:50.426Z,530.00
2023-04-18T02:50:50.390Z,528.00
2023-04-18T02:51:50.401Z,527.00
2023-04-18T02:52:50.420Z,527.00
2023-04-18T02:53:50.390Z,525.00
2023-04-18T02:54:50.414Z,524.00
2023-04-18T02:55:50.364Z,522.00
2023-04-18T02:56:50.378Z,523.00
2023-04-18T02:57:50.443Z,524.00
2023-04-18T02:58:50.468Z,524.00
2023-04-18T02:59:50.475Z,525.00
2023-04-18T03:00:51.322Z,526.00
2023-04-18T03:01:50.631Z,526.00
2023-04-18T03:02:50.762Z,524.00
2023-04-18T03:03:50.708Z,525.00
2023-04-18T03:04:50.920Z,525.00
2023-04-18T03:05:50.796Z,527.00
2023-04-18T03:06:50.869Z,528.00
2023-04-18T03:07:50.912Z,530.00
2023-04-18T03:08:50.976Z,530.00
2023-04-18T03:09:51.021Z,527.00
2023-04-18T03:10:51.131Z,528.00
2023-04-18T03:11:51.168Z,528.00
2023-04-18T03:12:51.225Z,529.00
2023-04-18T03:13:51.337Z,531.00
2023-04-18T03:14:52.345Z,531.00
2023-04-18T03:15:51.481Z,533.00
2023-04-18T03:16:53.855Z,532.00
2023-04-18T03:17:51.500Z,530.00
2023-04-18T03:18:51.441Z,527.00
2023-04-18T03:19:51.442Z,527.00
2023-04-18T03:20:51.463Z,529.00
2023-04-18T03:21:51.439Z,527.00
2023-04-18T03:22:51.436Z,526.00
2023-04-18T03:23:51.416Z,527.00
2023-04-18T03:24:51.440Z,526.00
2023-04-18T03:25:51.387Z,526.00
2023-04-18T03:26:51.385Z,527.00
2023-04-18T03:27:51.377Z,528.00
2023-04-18T03:28:51.361Z,527.00
2023-04-18T03:29:51.367Z,527.00
2023-04-18T03:30:51.388Z,530.00
2023-04-18T03:31:51.477Z,529.00
2023-04-18T03:32:51.439Z,529.00
2023-04-18T03:33:51.323Z,528.00
2023-04-18T03:34:51.354Z,528.00
2023-04-18T03:35:51.296Z,527.00
2023-04-18T03:36:51.302Z,528.00
2023-04-18T03:37:51.319Z,528.00
2023-04-18T03:38:51.291Z,528.00
2023-04-18T03:39:51.292Z,529.00
2023-04-18T03:40:51.282Z,530.00
2023-04-18T03:41:51.296Z,530.00
2023-04-18T03:42:51.350Z,530.00
2023-04-18T03:43:51.400Z,526.00
2023-04-18T03:44:51.416Z,527.00
2023-04-18T03:45:51.533Z,527.00
2023-04-18T03:46:51.582Z,526.00
2023-04-18T03:47:51.694Z,527.00
2023-04-18T03:48:51.700Z,527.00
2023-04-18T03:49:51.760Z,525.00
2023-04-18T03:50:51.813Z,524.00
2023-04-18T03:51:51.853Z,524.00
2023-04-18T03:52:51.934Z,522.00
2023-04-18T03:53:51.967Z,520.00
2023-04-18T03:54:52.052Z,519.00
2023-04-18T03:55:52.068Z,521.00
2023-04-18T03:56:52.094Z,520.00
2023-04-18T03:57:52.165Z,519.00
2023-04-18T03:58:52.213Z,517.00
2023-04-18T03:59:52.277Z,519.00
2023-04-18T04:00:52.354Z,519.00
2023-04-18T04:01:52.455Z,522.00
2023-04-18T04:02:52.553Z,519.00
2023-04-18T04:03:52.751Z,521.00
2023-04-18T04:04:52.556Z,521.00
2023-04-18T04:05:52.685Z,521.00
2023-04-18T04:06:52.636Z,521.00
2023-04-18T04:07:52.700Z,520.00
2023-04-18T04:08:52.754Z,520.00
2023-04-18T04:09:52.808Z,519.00
2023-04-18T04:10:52.806Z,520.00
2023-04-18T04:11:52.886Z,521.00
2023-04-18T04:12:52.904Z,519.00
2023-04-18T04:13:52.958Z,519.00
2023-04-18T04:14:53.054Z,520.00
2023-04-18T04:15:53.182Z,523.00
2023-04-18T04:16:53.180Z,522.00
2023-04-18T04:17:53.222Z,524.00
2023-04-18T04:18:53.231Z,523.00
2023-04-18T04:19:53.303Z,523.00
2023-04-18T04:20:53.317Z,523.00
2023-04-18T04:21:53.350Z,525.00
2023-04-18T04:22:53.424Z,525.00
2023-04-18T04:23:53.445Z,525.00
2023-04-18T04:24:53.554Z,527.00
2023-04-18T04:25:53.531Z,524.00
2023-04-18T04:26:53.596Z,523.00
2023-04-18T04:27:53.648Z,525.00
2023-04-18T04:28:53.673Z,522.00
2023-04-18T04:29:53.701Z,522.00
2023-04-18T04:30:53.748Z,519.00
2023-04-18T04:31:53.796Z,518.00
2023-04-18T04:32:53.890Z,517.00
2023-04-18T04:33:53.913Z,518.00
2023-04-18T04:34:53.922Z,517.00
2023-04-18T04:35:53.977Z,515.00
2023-04-18T04:36:54.011Z,513.00
2023-04-18T04:37:54.092Z,515.00
2023-04-18T04:38:54.144Z,514.00
2023-04-18T04:39:54.156Z,513.00
2023-04-18T04:40:54.208Z,513.00
2023-04-18T04:41:54.301Z,510.00
2023-04-18T04:42:54.309Z,507.00
2023-04-18T04:43:54.357Z,506.00
2023-04-18T04:44:54.421Z,508.00
2023-04-18T04:45:54.441Z,509.00
2023-04-18T04:46:54.529Z,507.00
2023-04-18T04:47:54.582Z,508.00
2023-04-18T04:48:54.550Z,511.00
2023-04-18T04:49:54.583Z,510.00
2023-04-18T04:50:54.647Z,512.00
2023-04-18T04:51:54.682Z,513.00
2023-04-18T04:52:54.706Z,512.00
2023-04-18T04:53:54.748Z,513.00
2023-04-18T04:54:54.802Z,513.00
2023-04-18T04:55:54.852Z,511.00
2023-04-18T04:56:54.894Z,510.00
2023-04-18T04:57:55.027Z,510.00
2023-04-18T04:58:54.965Z,512.00
2023-04-18T04:59:55.010Z,511.00
2023-04-18T05:00:55.233Z,511.00
2023-04-18T05:01:55.173Z,510.00
2023-04-18T05:02:55.358Z,510.00
2023-04-18T05:03:55.336Z,510.00
2023-04-18T05:04:55.278Z,511.00
2023-04-18T05:05:55.335Z,510.00
2023-04-18T05:06:55.352Z,512.00
2023-04-18T05:07:55.397Z,512.00
2023-04-18T05:08:55.446Z,512.00
2023-04-18T05:09:55.528Z,512.00
2023-04-18T05:10:55.567Z,511.00
2023-04-18T05:11:55.598Z,512.00
2023-04-18T05:12:55.653Z,513.00
2023-04-18T05:13:55.692Z,515.00
2023-04-18T05:14:55.759Z,515.00
2023-04-18T05:15:55.808Z,516.00
2023-04-18T05:16:55.912Z,515.00
2023-04-18T05:17:55.967Z,515.00
2023-04-18T05:18:55.978Z,516.00
2023-04-18T05:19:56.028Z,516.00
2023-04-18T05:20:56.070Z,516.00
2023-04-18T05:21:56.140Z,515.00
2023-04-18T05:22:56.237Z,515.00
2023-04-18T05:23:56.280Z,515.00
2023-04-18T05:24:56.299Z,514.00
2023-04-18T05:25:56.337Z,516.00
2023-04-18T05:26:56.414Z,518.00
2023-04-18T05:27:56.454Z,517.00
2023-04-18T05:28:56.530Z,517.00
2023-04-18T05:29:56.588Z,517.00
2023-04-18T05:30:56.691Z,518.00
2023-04-18T05:31:56.678Z,517.00
2023-04-18T05:32:56.745Z,515.00
2023-04-18T05:33:56.881Z,514.00
2023-04-18T05:34:56.849Z,516.00
2023-04-18T05:35:56.935Z,530.00
2023-04-18T05:36:56.966Z,550.00
2023-04-18T05:37:57.523Z,556.00
2023-04-18T05:38:57.108Z,565.00
2023-04-18T05:39:59.939Z,572.00
2023-04-18T05:40:57.147Z,580.00
2023-04-18T05:41:57.152Z,594.00
2023-04-18T05:42:57.089Z,601.00
2023-04-18T05:44:04.878Z,604.00
2023-04-18T05:44:58.149Z,609.00
2023-04-18T05:47:16.118Z,603.00
2023-04-18T05:48:15.900Z,597.00
2023-04-18T05:49:15.894Z,587.00
2023-04-18T05:50:15.873Z,578.00
2023-04-18T05:51:15.909Z,583.00
2023-04-18T05:52:15.908Z,596.00
2023-04-18T05:53:16.175Z,654.00
2023-04-18T05:54:16.211Z,663.00
2023-04-18T05:55:15.936Z,675.00
2023-04-18T05:56:15.928Z,747.00
2023-04-18T05:57:16.057Z,755.00
2023-04-18T05:58:16.122Z,768.00
2023-04-18T05:59:16.617Z,763.00
2023-04-18T06:00:16.189Z,727.00
2023-04-18T06:01:16.295Z,798.00
2023-04-18T06:02:17.411Z,727.00
2023-04-18T06:03:16.552Z,743.00
2023-04-18T06:04:17.242Z,817.00
2023-04-18T06:05:16.707Z,822.00
2023-04-18T06:06:16.457Z,831.00
2023-04-18T06:07:16.516Z,840.00
2023-04-18T06:08:16.559Z,832.00
2023-04-18T06:09:16.630Z,840.00
2023-04-18T06:10:16.688Z,849.00
2023-04-18T06:11:16.782Z,857.00
2023-04-18T06:12:16.799Z,859.00
2023-04-18T06:13:16.909Z,868.00
2023-04-18T06:14:16.996Z,880.00
2023-04-18T06:15:17.045Z,895.00
2023-04-18T06:16:17.084Z,902.00
2023-04-18T06:17:17.154Z,923.00
2023-04-18T06:18:17.230Z,931.00
2023-04-18T06:19:17.596Z,933.00
2023-04-18T06:20:17.284Z,947.00
2023-04-18T06:21:17.371Z,955.00
2023-04-18T06:22:17.432Z,955.00
2023-04-18T06:23:17.459Z,958.00
2023-04-18T06:24:17.547Z,962.00
2023-04-18T06:25:17.552Z,965.00
2023-04-18T06:26:17.600Z,971.00
2023-04-18T06:27:30.213Z,980.00
2023-04-18T06:28:18.645Z,992.00
2023-04-18T06:29:17.640Z,1005.00
2023-04-18T06:30:17.687Z,1014.00
2023-04-18T06:31:17.622Z,1025.00
2023-04-18T06:32:17.609Z,1033.00
2023-04-18T06:33:17.572Z,1040.00
2023-04-18T06:34:17.603Z,1070.00
2023-04-18T06:35:17.667Z,1082.00
2023-04-18T06:36:17.588Z,1086.00
2023-04-18T06:37:17.607Z,1097.00
2023-04-18T06:38:17.538Z,1102.00
2023-04-18T06:39:17.633Z,1119.00
2023-04-18T06:40:17.571Z,1145.00
2023-04-18T06:41:17.545Z,1198.00
2023-04-18T06:42:17.703Z,1243.00
2023-04-18T06:43:17.543Z,1262.00
2023-04-18T06:44:17.597Z,1282.00
2023-04-18T06:45:17.497Z,1309.00
2023-04-18T06:46:17.536Z,1332.00
2023-04-18T06:47:17.519Z,1348.00
2023-04-18T06:48:17.518Z,1369.00
2023-04-18T06:49:17.550Z,1384.00
2023-04-18T06:50:17.520Z,1403.00
2023-04-18T06:51:17.559Z,1415.00
2023-04-18T06:52:17.552Z,1434.00
2023-04-18T06:53:17.636Z,1450.00
2023-04-18T06:54:17.653Z,1464.00
2023-04-18T06:55:17.658Z,1474.00
2023-04-18T06:56:17.645Z,1491.00
2023-04-18T06:57:17.656Z,1515.00
2023-04-18T06:58:17.699Z,1530.00
2023-04-18T06:59:18.130Z,1569.00
2023-04-18T07:00:17.698Z,1583.00
2023-04-18T07:01:18.543Z,1596.00
2023-04-18T07:02:17.720Z,1624.00
2023-04-18T07:03:17.883Z,1645.00
2023-04-18T07:04:17.903Z,1655.00
2023-04-18T07:05:18.609Z,1667.00
2023-04-18T07:06:17.701Z,1687.00
2023-04-18T07:07:17.731Z,1708.00
2023-04-18T07:08:17.779Z,1720.00
2023-04-18T07:09:17.884Z,1741.00
2023-04-18T07:10:17.925Z,1814.00
2023-04-18T07:11:17.922Z,1832.00
2023-04-18T07:12:17.943Z,1844.00
2023-04-18T07:13:18.029Z,1861.00
2023-04-18T07:14:18.038Z,1872.00
2023-04-18T07:15:18.213Z,1888.00
2023-04-18T07:16:18.130Z,1899.00
2023-04-18T07:17:18.241Z,1916.00
2023-04-18T07:18:30.271Z,1934.00
2023-04-18T07:19:19.254Z,1958.00
2023-04-18T07:20:18.227Z,1972.00
2023-04-18T07:21:18.214Z,1988.00
2023-04-18T07:22:18.185Z,2003.00
2023-04-18T07:23:18.212Z,2020.00
2023-04-18T07:24:18.203Z,2044.00
2023-04-18T07:25:18.169Z,2061.00
2023-04-18T07:26:18.176Z,2086.00
2023-04-18T07:27:18.211Z,2115.00
2023-04-18T07:28:18.276Z,2122.00
2023-04-18T07:29:18.397Z,2130.00
2023-04-18T07:30:18.360Z,2146.00
2023-04-18T07:31:18.744Z,2158.00
2023-04-18T07:32:18.628Z,2168.00
2023-04-18T07:33:18.601Z,2185.00
2023-04-18T07:34:18.635Z,2208.00
2023-04-18T07:35:18.693Z,2245.00
2023-04-18T07:36:18.756Z,2249.00
2023-04-18T07:37:18.804Z,2256.00
2023-04-18T07:38:18.853Z,2262.00
2023-04-18T07:39:19.155Z,2268.00
2023-04-18T07:40:18.999Z,2259.00
2023-04-18T07:41:19.031Z,1966.00
2023-04-18T07:42:19.033Z,1729.00
2023-04-18T07:43:20.805Z,1460.00
2023-04-18T07:44:19.094Z,1338.00
2023-04-18T07:45:19.092Z,1337.00
2023-04-18T07:46:19.150Z,1476.00
2023-04-18T07:47:22.340Z,1573.00
2023-04-18T07:48:19.118Z,1519.00
2023-04-18T07:49:19.104Z,1277.00
2023-04-18T07:50:19.133Z,1185.00
2023-04-18T07:51:19.139Z,1294.00
2023-04-18T07:52:19.134Z,1376.00
2023-04-18T07:53:19.082Z,1345.00
2023-04-18T07:54:19.082Z,1320.00
2023-04-18T07:55:19.238Z,1334.00
2023-04-18T07:56:19.063Z,1314.00
2023-04-18T07:57:19.069Z,1204.00
2023-04-18T07:58:19.032Z,1086.00
2023-04-18T07:59:19.094Z,1162.00
2023-04-18T08:00:19.084Z,1183.00
2023-04-18T08:01:19.009Z,1017.00
2023-04-18T08:02:19.193Z,1045.00
2023-04-18T08:03:19.398Z,1072.00
2023-04-18T08:04:19.198Z,771.00
2023-04-18T08:05:19.164Z,859.00
2023-04-18T08:06:18.982Z,895.00
2023-04-18T08:07:18.979Z,787.00
2023-04-18T08:08:18.952Z,906.00
2023-04-18T08:09:18.977Z,928.00
2023-04-18T08:10:18.989Z,928.00
2023-04-18T08:11:18.985Z,923.00
2023-04-18T08:12:19.121Z,968.00
2023-04-18T08:13:18.968Z,1002.00
2023-04-18T08:14:19.082Z,1008.00
2023-04-18T08:15:18.946Z,1012.00
2023-04-18T08:16:19.000Z,938.00
2023-04-18T08:17:18.964Z,940.00
2023-04-18T08:18:18.923Z,955.00
2023-04-18T08:19:18.958Z,966.00
2023-04-18T08:20:18.921Z,978.00
2023-04-18T08:21:18.931Z,987.00
2023-04-18T08:22:18.915Z,988.00
2023-04-18T08:23:18.896Z,983.00
2023-04-18T08:24:18.888Z,981.00
2023-04-18T08:25:19.209Z,986.00
2023-04-18T08:26:18.853Z,995.00
2023-04-18T08:27:18.868Z,1004.00
2023-04-18T08:28:18.869Z,1091.00
2023-04-18T08:29:18.842Z,1038.00
2023-04-18T08:30:18.837Z,1014.00
2023-04-18T08:31:18.829Z,1022.00
2023-04-18T08:32:18.856Z,1051.00
2023-04-18T08:33:18.877Z,1121.00
2023-04-18T08:34:18.823Z,1115.00
2023-04-18T08:35:18.826Z,1125.00
2023-04-18T08:36:18.852Z,1108.00
2023-04-18T08:37:18.879Z,1089.00
2023-04-18T08:38:18.889Z,1087.00
2023-04-18T08:39:19.002Z,1088.00
2023-04-18T08:40:19.737Z,1084.00
2023-04-18T08:41:19.062Z,1081.00
2023-04-18T08:42:19.094Z,1076.00
2023-04-18T08:43:19.153Z,1067.00
2023-04-18T08:44:19.178Z,1057.00
2023-04-18T08:45:19.678Z,1057.00
2023-04-18T08:46:19.296Z,1052.00
2023-04-18T08:47:19.327Z,1043.00
2023-04-18T08:48:19.343Z,1029.00
2023-04-18T08:49:19.392Z,1020.00
2023-04-18T08:50:19.713Z,1012.00
2023-04-18T08:51:19.876Z,971.00
2023-04-18T08:52:19.519Z,586.00
2023-04-18T08:53:19.598Z,730.00
2023-04-18T08:54:19.610Z,656.00
2023-04-18T08:55:19.636Z,694.00
2023-04-18T08:56:19.685Z,712.00
2023-04-18T08:57:19.727Z,784.00
2023-04-18T08:58:19.758Z,778.00
2023-04-18T08:59:19.753Z,781.00
2023-04-18T09:00:20.223Z,820.00
2023-04-18T09:01:19.807Z,888.00
2023-04-18T09:02:19.845Z,886.00
2023-04-18T09:03:19.897Z,896.00
2023-04-18T09:04:19.860Z,901.00
2023-04-18T09:05:20.191Z,898.00
2023-04-18T09:06:19.911Z,820.00
2023-04-18T09:07:19.978Z,866.00
2023-04-18T09:08:20.004Z,889.00
2023-04-18T09:09:20.087Z,911.00
2023-04-18T09:10:20.158Z,929.00
2023-04-18T09:11:20.210Z,934.00
2023-04-18T09:12:21.254Z,937.00
2023-04-18T09:13:20.313Z,935.00
2023-04-18T09:14:20.377Z,878.00
2023-04-18T09:15:20.456Z,829.00
2023-04-18T09:16:20.521Z,886.00
2023-04-18T09:17:20.504Z,900.00
2023-04-18T09:18:20.610Z,922.00
2023-04-18T09:19:20.677Z,939.00
2023-04-18T09:20:20.662Z,943.00
2023-04-18T09:21:20.710Z,928.00
2023-04-18T09:22:20.802Z,877.00
2023-04-18T09:23:20.867Z,889.00
2023-04-18T09:24:21.013Z,899.00
2023-04-18T09:25:20.950Z,909.00
2023-04-18T09:26:20.959Z,917.00
2023-04-18T09:27:21.018Z,916.00
2023-04-18T09:28:21.163Z,920.00
2023-04-18T09:29:21.074Z,926.00
2023-04-18T09:30:21.150Z,934.00
2023-04-18T09:31:21.225Z,933.00
2023-04-18T09:32:21.213Z,936.00
2023-04-18T09:33:21.226Z,942.00
2023-04-18T09:34:21.224Z,941.00
2023-04-18T09:35:21.707Z,941.00
2023-04-18T09:36:21.361Z,924.00
2023-04-18T09:37:21.346Z,929.00
2023-04-18T09:38:21.339Z,930.00
2023-04-18T09:39:21.626Z,943.00
2023-04-18T09:40:21.598Z,955.00
2023-04-18T09:41:21.731Z,960.00
2023-04-18T09:42:21.605Z,959.00
2023-04-18T09:43:21.522Z,888.00
2023-04-18T09:44:21.554Z,963.00
2023-04-18T09:45:21.716Z,972.00
2023-04-18T09:46:21.726Z,983.00
2023-04-18T09:47:21.679Z,1026.00
2023-04-18T09:48:21.704Z,1036.00
2023-04-18T09:49:21.742Z,1050.00
2023-04-18T09:50:21.761Z,1064.00
2023-04-18T09:51:21.817Z,1077.00
2023-04-18T09:52:21.856Z,1084.00
2023-04-18T09:53:21.931Z,1064.00
2023-04-18T09:54:21.898Z,1078.00
2023-04-18T09:55:22.201Z,1081.00
2023-04-18T09:56:21.988Z,1078.00
2023-04-18T09:57:22.015Z,1017.00
2023-04-18T09:58:21.995Z,994.00
2023-04-18T09:59:22.074Z,989.00
2023-04-18T10:00:22.138Z,978.00
2023-04-18T10:01:22.152Z,965.00
2023-04-18T10:02:22.284Z,948.00
2023-04-18T10:03:22.324Z,942.00
2023-04-18T10:04:22.284Z,899.00
2023-04-18T10:05:22.341Z,884.00
2023-04-18T10:06:22.365Z,886.00
2023-04-18T10:07:22.432Z,898.00
2023-04-18T10:08:22.435Z,902.00
2023-04-18T10:09:22.518Z,883.00
2023-04-18T10:10:22.726Z,800.00
2023-04-18T10:11:22.669Z,840.00
2023-04-18T10:12:22.717Z,788.00
2023-04-18T10:13:22.738Z,825.00
2023-04-18T10:14:22.809Z,792.00
2023-04-18T10:15:23.205Z,781.00
2023-04-18T10:16:22.992Z,787.00
2023-04-18T10:17:23.001Z,790.00
2023-04-18T10:18:23.217Z,783.00
2023-04-18T10:19:23.153Z,781.00
2023-04-18T10:20:23.364Z,717.00
2023-04-18T10:21:23.297Z,727.00
2023-04-18T10:22:23.353Z,756.00
2023-04-18T10:23:23.463Z,745.00
2023-04-18T10:24:23.475Z,737.00
2023-04-18T10:25:23.743Z,706.00
2023-04-18T10:26:23.438Z,691.00
2023-04-18T10:27:23.498Z,700.00
2023-04-18T10:28:23.619Z,666.00
2023-04-18T10:29:23.666Z,654.00
2023-04-18T10:30:23.727Z,665.00
2023-04-18T10:31:24.292Z,672.00
2023-04-18T10:32:23.861Z,683.00
2023-04-18T10:33:30.386Z,701.00
2023-04-18T10:34:24.816Z,741.00
2023-04-18T10:35:24.275Z,750.00
2023-04-18T10:36:23.823Z,745.00
2023-04-18T10:37:23.786Z,792.00
2023-04-18T10:38:23.786Z,808.00
2023-04-18T10:39:23.806Z,827.00
2023-04-18T10:40:23.807Z,897.00
2023-04-18T10:41:24.241Z,886.00
2023-04-18T10:42:23.815Z,928.00
2023-04-18T10:43:23.808Z,881.00
2023-04-18T10:44:24.166Z,998.00
2023-04-18T10:45:23.751Z,1003.00
2023-04-18T10:46:31.634Z,1008.00
2023-04-18T10:47:24.952Z,1011.00
2023-04-18T10:48:23.880Z,1019.00
2023-04-18T10:49:26.372Z,1024.00
2023-04-18T10:50:23.777Z,1032.00
2023-04-18T10:51:23.734Z,1035.00
2023-04-18T10:52:23.682Z,1035.00
2023-04-18T10:53:23.709Z,1040.00
2023-04-18T10:54:23.656Z,1039.00
2023-04-18T10:55:23.713Z,1036.00
2023-04-18T10:56:24.228Z,1041.00
2023-04-18T10:57:23.666Z,1042.00
2023-04-18T10:58:23.679Z,1005.00
2023-04-18T10:59:23.767Z,998.00
2023-04-18T11:00:23.671Z,1012.00
2023-04-18T11:01:23.742Z,983.00
2023-04-18T11:02:23.716Z,1009.00
2023-04-18T11:03:23.695Z,1025.00
2023-04-18T11:04:23.657Z,1029.00
2023-04-18T11:05:23.598Z,1030.00
2023-04-18T11:06:23.743Z,1043.00
2023-04-18T11:07:23.596Z,1052.00
2023-04-18T11:08:23.549Z,1055.00
2023-04-18T11:09:23.594Z,1077.00
2023-04-18T11:10:23.572Z,1086.00
2023-04-18T11:11:23.736Z,1079.00
2023-04-18T11:12:23.550Z,1077.00
2023-04-18T11:13:23.546Z,1078.00
2023-04-18T11:14:23.544Z,1081.00
2023-04-18T11:15:23.598Z,1090.00
2023-04-18T11:16:23.602Z,1094.00
2023-04-18T11:17:23.587Z,1096.00
2023-04-18T11:18:23.475Z,1092.00
2023-04-18T11:19:23.547Z,1101.00
2023-04-18T11:20:23.519Z,1124.00
2023-04-18T11:21:23.473Z,1126.00
2023-04-18T11:22:23.474Z,1123.00
2023-04-18T11:23:23.487Z,1126.00
2023-04-18T11:24:23.464Z,1112.00
2023-04-18T11:25:23.466Z,1128.00
2023-04-18T11:26:23.473Z,1135.00
2023-04-18T11:27:23.446Z,1059.00
2023-04-18T11:28:23.422Z,1121.00
2023-04-18T11:29:23.477Z,1127.00
2023-04-18T11:30:23.426Z,1125.00
2023-04-18T11:31:23.785Z,1137.00
2023-04-18T11:32:23.628Z,1154.00
2023-04-18T11:33:23.435Z,1166.00
2023-04-18T11:34:23.421Z,1170.00
2023-04-18T11:35:23.436Z,1168.00
2023-04-18T11:36:23.784Z,1161.00
2023-04-18T11:37:23.376Z,1166.00
2023-04-18T11:38:24.330Z,1172.00
2023-04-18T11:39:23.434Z,1174.00
2023-04-18T11:40:23.397Z,1174.00
2023-04-18T11:41:23.769Z,1168.00
2023-04-18T11:42:23.312Z,1165.00
2023-04-18T11:43:23.365Z,1163.00
2023-04-18T11:44:23.330Z,1165.00
2023-04-18T11:45:23.296Z,1168.00
2023-04-18T11:46:23.384Z,1170.00
2023-04-18T11:47:23.381Z,1164.00
2023-04-18T11:48:23.363Z,1159.00
2023-04-18T11:49:23.366Z,1157.00
2023-04-18T11:50:23.374Z,1156.00
2023-04-18T11:51:23.427Z,1156.00
2023-04-18T11:52:23.436Z,1153.00
2023-04-18T11:53:23.434Z,1151.00
2023-04-18T11:54:23.490Z,1146.00
2023-04-18T11:55:23.492Z,1142.00
2023-04-18T11:56:23.566Z,1137.00
2023-04-18T11:57:23.551Z,1138.00
2023-04-18T11:58:23.627Z,1133.00
2023-04-18T11:59:23.640Z,1133.00
2023-04-18T12:00:23.700Z,1130.00
2023-04-18T12:01:23.666Z,1125.00
2023-04-18T12:02:23.822Z,1122.00
2023-04-18T12:03:24.000Z,1121.00
2023-04-18T12:04:24.047Z,1118.00
2023-04-18T12:05:24.106Z,1116.00
2023-04-18T12:06:24.095Z,1118.00
2023-04-18T12:07:24.004Z,1116.00
2023-04-18T12:08:23.948Z,1114.00
2023-04-18T12:09:24.007Z,1114.00
2023-04-18T12:10:24.022Z,1111.00
2023-04-18T12:11:24.074Z,1108.00
2023-04-18T12:12:24.067Z,1107.00
2023-04-18T12:13:24.105Z,1107.00
2023-04-18T12:14:24.153Z,1110.00
2023-04-18T12:15:24.220Z,1111.00
2023-04-18T12:16:24.329Z,1103.00
2023-04-18T12:17:24.299Z,1097.00
2023-04-18T12:18:24.312Z,1095.00
2023-04-18T12:19:24.321Z,1092.00
2023-04-18T12:20:24.409Z,1089.00
2023-04-18T12:21:24.395Z,1088.00
2023-04-18T12:22:24.769Z,1092.00
2023-04-18T12:23:24.484Z,1091.00